createdAt,value
2018-03-28T00:00:28.812Z,3.24
2018-03-28T00:03:32.149Z,3.19
2018-03-28T00:06:35.459Z,3.22
2018-03-28T00:09:38.802Z,3.24
2018-03-28T00:12:42.157Z,3.20
2018-03-28T00:15:45.494Z,3.16
2018-03-28T00:18:48.840Z,3.13
2018-03-28T00:21:52.156Z,3.15
2018-03-28T00:24:55.507Z,3.12
2018-03-28T00:27:58.871Z,3.10
2018-03-28T00:31:02.253Z,3.08
2018-03-28T00:34:05.570Z,3.09
2018-03-28T00:37:08.983Z,3.07
2018-03-28T00:40:12.331Z,3.06
2018-03-28T00:43:15.701Z,3.03
2018-03-28T00:46:19.909Z,3.06
2018-03-28T00:49:23.272Z,3.09
2018-03-28T00:52:26.640Z,3.13
2018-03-28T00:55:30.774Z,3.16
2018-03-28T00:58:34.619Z,3.20
2018-03-28T01:01:37.964Z,3.21
2018-03-28T01:04:42.081Z,3.21
2018-03-28T01:07:45.448Z,3.24
2018-03-28T01:10:48.814Z,3.26
2018-03-28T01:13:52.160Z,3.24
2018-03-28T01:16:55.528Z,3.24
2018-03-28T01:19:58.905Z,3.29
2018-03-28T01:23:03.005Z,3.31
2018-03-28T01:26:08.146Z,3.33
2018-03-28T01:29:11.491Z,3.33
2018-03-28T01:32:14.832Z,3.35
2018-03-28T01:35:18.948Z,3.36
2018-03-28T01:38:22.275Z,3.35
2018-03-28T01:41:25.632Z,3.37
2018-03-28T01:44:29.771Z,3.32
2018-03-28T01:47:33.115Z,3.33
2018-03-28T01:50:36.496Z,3.36
2018-03-28T01:53:39.989Z,3.36
2018-03-28T01:56:44.281Z,3.36
2018-03-28T01:59:50.153Z,3.38
2018-03-28T02:02:54.282Z,3.38
2018-03-28T02:05:57.620Z,3.37
2018-03-28T02:09:01.016Z,3.39
2018-03-28T02:12:05.357Z,3.39
2018-03-28T02:15:08.771Z,3.40
2018-03-28T02:18:12.891Z,3.39
2018-03-28T02:21:16.213Z,3.41
2018-03-28T02:24:19.576Z,3.44
2018-03-28T02:27:22.950Z,3.45
2018-03-28T02:30:26.335Z,3.44
2018-03-28T02:33:29.694Z,3.43
2018-03-28T02:36:33.060Z,3.43
2018-03-28T02:39:36.455Z,3.42
2018-03-28T02:42:40.329Z,3.44
2018-03-28T02:45:43.700Z,3.40
2018-03-28T02:48:47.083Z,3.42
2018-03-28T02:52:01.328Z,3.37
2018-03-28T02:55:04.780Z,3.39
2018-03-28T02:58:08.176Z,3.39
2018-03-28T03:01:11.577Z,3.39
2018-03-28T03:04:14.921Z,3.38
2018-03-28T03:07:18.308Z,3.38
2018-03-28T03:10:21.683Z,3.38
2018-03-28T03:13:25.500Z,3.37
2018-03-28T03:16:32.553Z,3.37
2018-03-28T03:19:35.935Z,3.30
2018-03-28T03:22:39.335Z,3.30
2018-03-28T03:25:43.601Z,3.29
2018-03-28T03:28:46.947Z,3.32
2018-03-28T03:31:50.323Z,3.30
2018-03-28T03:34:53.690Z,3.28
2018-03-28T03:37:57.017Z,3.27
2018-03-28T03:44:45.666Z,3.20
2018-03-28T03:48:00.380Z,3.20
2018-03-28T03:51:12.071Z,3.23
2018-03-28T03:54:28.111Z,3.20
2018-03-28T03:57:36.732Z,3.18
2018-03-28T04:00:50.198Z,3.14
2018-03-28T04:03:56.570Z,3.10
2018-03-28T04:07:00.595Z,3.11
2018-03-28T04:10:03.947Z,3.08
2018-03-28T04:13:07.267Z,3.07
2018-03-28T04:16:11.339Z,3.08
2018-03-28T04:19:14.655Z,3.05
2018-03-28T04:22:18.730Z,3.04
2018-03-28T04:25:22.048Z,3.06
2018-03-28T04:28:25.394Z,3.03
2018-03-28T04:31:28.696Z,3.05
2018-03-28T04:34:32.015Z,3.05
2018-03-28T04:37:35.310Z,3.06
2018-03-28T04:40:38.626Z,3.02
2018-03-28T04:43:41.938Z,2.99
2018-03-28T04:46:45.258Z,2.95
2018-03-28T04:49:49.348Z,2.95
2018-03-28T04:52:52.770Z,2.95
2018-03-28T04:55:56.840Z,2.91
2018-03-28T04:59:00.163Z,2.88
2018-03-28T05:02:03.487Z,2.92
2018-03-28T05:05:06.811Z,2.89
2018-03-28T05:08:10.910Z,2.88
2018-03-28T05:11:14.216Z,2.86
2018-03-28T05:14:17.526Z,2.88
2018-03-28T05:17:20.851Z,2.86
2018-03-28T05:20:24.166Z,2.87
2018-03-28T05:23:28.226Z,2.84
2018-03-28T05:26:31.542Z,2.85
2018-03-28T05:29:34.859Z,2.86
2018-03-28T05:32:38.158Z,2.87
2018-03-28T05:35:41.475Z,2.87
2018-03-28T05:38:45.566Z,2.88
2018-03-28T05:41:48.871Z,2.88
2018-03-28T05:44:52.958Z,2.88
2018-03-28T05:47:56.260Z,2.90
2018-03-28T05:50:59.578Z,2.87
2018-03-28T05:54:02.879Z,2.88
2018-03-28T05:57:06.974Z,2.90
2018-03-28T06:00:10.276Z,2.94
2018-03-28T06:03:13.603Z,2.95
2018-03-28T06:06:17.666Z,2.95
2018-03-28T06:09:21.778Z,2.96
2018-03-28T06:12:25.074Z,2.96
2018-03-28T06:15:28.401Z,2.99
2018-03-28T06:18:31.727Z,3.00
2018-03-28T06:21:35.021Z,3.01
2018-03-28T06:24:38.345Z,3.06
2018-03-28T06:27:41.651Z,3.06
2018-03-28T06:30:44.971Z,3.09
2018-03-28T06:33:48.290Z,3.09
2018-03-28T06:36:52.350Z,3.12
2018-03-28T06:39:55.667Z,3.14
2018-03-28T06:42:58.967Z,3.18
2018-03-28T06:46:02.294Z,3.19
2018-03-28T06:49:06.378Z,3.20
2018-03-28T06:52:09.673Z,3.21
2018-03-28T06:55:12.986Z,3.22
2018-03-28T06:58:16.288Z,3.27
2018-03-28T07:01:19.612Z,3.29
2018-03-28T07:04:22.911Z,3.33
2018-03-28T07:07:26.231Z,3.34
2018-03-28T07:10:29.531Z,3.33
2018-03-28T07:13:32.846Z,3.36
2018-03-28T07:16:36.146Z,3.38
2018-03-28T07:19:39.474Z,3.38
2018-03-28T07:22:43.571Z,3.43
2018-03-28T07:25:46.866Z,3.46
2018-03-28T07:28:50.198Z,3.48
2018-03-28T07:31:53.501Z,3.48
2018-03-28T07:34:56.817Z,3.55
2018-03-28T07:38:00.118Z,3.56
2018-03-28T07:41:03.450Z,3.58
2018-03-28T07:44:07.527Z,3.59
2018-03-28T07:47:10.843Z,3.57
2018-03-28T07:50:14.155Z,3.60
2018-03-28T07:53:17.477Z,3.65
2018-03-28T07:56:21.570Z,3.64
2018-03-28T07:59:24.902Z,3.66
2018-03-28T08:02:28.211Z,3.69
2018-03-28T08:05:31.536Z,3.70
2018-03-28T08:08:34.830Z,3.72
2018-03-28T08:11:38.968Z,3.77
2018-03-28T08:14:42.242Z,3.79
2018-03-28T08:17:45.562Z,3.80
2018-03-28T08:20:48.868Z,3.83
2018-03-28T08:23:52.194Z,3.87
2018-03-28T08:26:55.490Z,3.90
2018-03-28T08:29:58.826Z,3.91
2018-03-28T08:33:02.134Z,3.94
2018-03-28T08:36:05.445Z,3.96
2018-03-28T08:39:08.755Z,3.94
2018-03-28T08:42:12.830Z,3.95
2018-03-28T08:45:16.127Z,3.95
2018-03-28T08:48:19.442Z,3.95
2018-03-28T08:51:22.738Z,3.93
2018-03-28T08:54:26.058Z,3.95
2018-03-28T08:57:30.146Z,3.95
2018-03-28T09:00:33.463Z,4.01
2018-03-28T09:03:36.767Z,4.04
2018-03-28T09:06:40.853Z,4.05
2018-03-28T09:09:44.158Z,4.09
2018-03-28T09:12:47.474Z,4.10
2018-03-28T09:15:51.540Z,4.08
2018-03-28T09:18:54.855Z,4.10
2018-03-28T09:21:58.195Z,4.11
2018-03-28T09:25:01.495Z,4.05
2018-03-28T09:28:04.811Z,4.01
2018-03-28T09:31:08.116Z,4.04
2018-03-28T09:34:11.446Z,4.07
2018-03-28T09:37:14.738Z,4.14
2018-03-28T09:40:18.059Z,4.23
2018-03-28T09:43:22.131Z,4.24
2018-03-28T09:46:25.450Z,4.29
2018-03-28T09:49:28.755Z,4.27
2018-03-28T09:52:32.071Z,4.24
2018-03-28T09:55:35.403Z,4.25
2018-03-28T09:58:38.699Z,4.20
2018-03-28T10:05:30.911Z,4.15
2018-03-28T10:08:34.986Z,4.15
2018-03-28T10:11:38.303Z,4.14
2018-03-28T10:14:41.598Z,4.13
2018-03-28T10:17:44.927Z,4.09
2018-03-28T10:20:48.235Z,4.10
2018-03-28T10:23:51.552Z,4.13
2018-03-28T10:26:54.847Z,4.16
2018-03-28T10:29:58.162Z,4.15
2018-03-28T10:33:01.484Z,4.12
2018-03-28T10:36:04.812Z,4.12
2018-03-28T10:39:08.118Z,4.08
2018-03-28T10:42:11.430Z,4.12
2018-03-28T10:45:14.730Z,4.17
2018-03-28T10:48:19.634Z,4.17
2018-03-28T10:51:23.008Z,4.20
2018-03-28T10:54:27.152Z,4.22
2018-03-28T10:57:30.479Z,4.25
2018-03-28T11:00:33.779Z,4.27
2018-03-28T11:03:37.103Z,4.29
2018-03-28T11:06:40.399Z,4.26
2018-03-28T11:09:43.743Z,4.28
2018-03-28T11:12:47.043Z,4.24
2018-03-28T11:15:50.365Z,4.20
2018-03-28T11:18:53.659Z,4.24
2018-03-28T11:21:56.975Z,4.32
2018-03-28T11:25:00.294Z,4.42
2018-03-28T11:28:04.369Z,4.48
2018-03-28T11:31:07.688Z,4.54
2018-03-28T11:34:11.870Z,4.60
2018-03-28T11:37:16.760Z,4.66
2018-03-28T11:40:20.172Z,4.70
2018-03-28T11:43:25.710Z,4.75
2018-03-28T11:46:29.695Z,4.79
2018-03-28T11:49:33.072Z,4.84
2018-03-28T11:52:47.177Z,4.89
2018-03-28T11:55:51.234Z,5.00
2018-03-28T11:58:54.554Z,5.19
2018-03-28T12:01:57.878Z,5.22
2018-03-28T12:05:01.240Z,5.18
2018-03-28T12:08:04.571Z,5.20
2018-03-28T12:11:08.634Z,5.22
2018-03-28T12:14:11.961Z,5.19
2018-03-28T12:20:44.008Z,5.18
2018-03-28T12:23:47.378Z,5.16
2018-03-28T12:26:50.732Z,5.16
2018-03-28T12:29:54.998Z,5.24
2018-03-28T12:32:58.995Z,5.28
2018-03-28T12:36:02.336Z,5.32
2018-03-28T12:39:06.304Z,5.27
2018-03-28T12:42:10.516Z,5.13
2018-03-28T12:45:13.843Z,4.97
2018-03-28T12:48:17.382Z,4.92
2018-03-28T12:51:21.960Z,4.90
2018-03-28T12:54:25.457Z,4.87
2018-03-28T12:57:29.661Z,4.90
2018-03-28T13:00:34.723Z,4.91
2018-03-28T13:03:38.103Z,4.91
2018-03-28T13:06:41.449Z,4.94
2018-03-28T13:09:45.612Z,4.89
2018-03-28T13:12:49.524Z,4.88
2018-03-28T13:15:53.783Z,4.87
2018-03-28T13:18:57.209Z,4.88
2018-03-28T13:22:00.666Z,4.76
2018-03-28T13:25:04.164Z,4.71
2018-03-28T13:28:07.490Z,4.63
2018-03-28T13:31:11.596Z,4.60
2018-03-28T13:34:14.969Z,4.57
2018-03-28T13:37:18.315Z,4.53
2018-03-28T13:40:21.619Z,4.46
2018-03-28T13:43:25.899Z,4.44
2018-03-28T13:46:29.366Z,4.41
2018-03-28T13:49:32.835Z,4.41
2018-03-28T13:52:38.072Z,4.34
2018-03-28T13:55:43.176Z,4.32
2018-03-28T13:58:46.720Z,4.32
2018-03-28T14:01:51.712Z,4.34
2018-03-28T14:04:56.954Z,4.22
2018-03-28T14:08:00.472Z,4.23
2018-03-28T14:11:03.892Z,4.18
2018-03-28T14:14:07.321Z,4.11
2018-03-28T14:17:11.128Z,4.03
2018-03-28T14:20:19.382Z,3.95
2018-03-28T14:23:23.190Z,3.93
2018-03-28T14:26:26.754Z,3.93
2018-03-28T14:29:30.294Z,3.91
2018-03-28T14:32:35.735Z,3.86
2018-03-28T14:35:39.214Z,3.83
2018-03-28T14:38:42.672Z,3.85
2018-03-28T14:41:47.658Z,3.80
2018-03-28T14:44:51.098Z,3.78
2018-03-28T14:47:54.613Z,3.76
2018-03-28T14:50:59.637Z,3.78
2018-03-28T14:54:04.270Z,3.79
2018-03-28T14:57:09.515Z,3.81
2018-03-28T15:00:13.740Z,3.78
2018-03-28T15:03:17.233Z,3.73
2018-03-28T15:06:21.568Z,3.71
2018-03-28T15:09:25.096Z,3.70
2018-03-28T15:12:29.209Z,3.65
2018-03-28T15:15:32.731Z,3.62
2018-03-28T15:21:46.889Z,3.53
2018-03-28T15:24:50.459Z,3.52
2018-03-28T15:27:54.689Z,3.52
2018-03-28T15:30:58.202Z,3.49
2018-03-28T15:34:01.706Z,3.48
2018-03-28T15:37:06.182Z,3.44
2018-03-28T15:40:09.702Z,3.41
2018-03-28T15:43:13.328Z,3.39
2018-03-28T15:46:17.247Z,3.37
2018-03-28T15:49:21.457Z,3.33
2018-03-28T15:52:25.997Z,3.30
2018-03-28T15:55:29.571Z,3.25
2018-03-28T15:58:33.082Z,3.24
2018-03-28T16:01:38.489Z,3.25
2018-03-28T16:04:44.587Z,3.26
2018-03-28T16:07:48.140Z,3.26
2018-03-28T16:10:52.632Z,3.27
2018-03-28T16:13:56.065Z,3.30
2018-03-28T16:17:01.785Z,3.23
2018-03-28T16:20:05.278Z,3.16
2018-03-28T16:23:10.262Z,3.16
2018-03-28T16:26:15.497Z,3.15
2018-03-28T16:29:20.738Z,3.12
2018-03-28T16:32:25.099Z,3.10
2018-03-28T16:35:29.727Z,3.10
2018-03-28T16:38:34.869Z,3.10
2018-03-28T16:41:38.388Z,3.11
2018-03-28T16:44:42.284Z,3.09
2018-03-28T16:47:46.587Z,3.06
2018-03-28T16:50:51.410Z,3.07
2018-03-28T16:53:56.475Z,3.04
2018-03-28T16:57:01.543Z,3.01
2018-03-28T17:00:06.028Z,3.02
2018-03-28T17:03:10.592Z,3.00
2018-03-28T17:06:15.921Z,3.00
2018-03-28T17:09:21.397Z,2.97
2018-03-28T17:12:26.419Z,2.97
2018-03-28T17:15:31.384Z,2.98
2018-03-28T17:18:35.816Z,2.97
2018-03-28T17:21:40.949Z,2.97
2018-03-28T17:31:27.504Z,2.95
2018-03-28T17:34:33.224Z,2.94
2018-03-28T17:37:57.405Z,2.95
2018-03-28T17:41:01.928Z,2.88
2018-03-28T17:44:07.256Z,2.83
2018-03-28T17:47:10.592Z,2.79
2018-03-28T17:50:13.936Z,2.71
2018-03-28T17:53:18.018Z,2.65
2018-03-28T17:56:21.314Z,2.58
2018-03-28T17:59:24.639Z,2.50
2018-03-28T18:02:28.741Z,2.45
2018-03-28T18:05:32.815Z,2.38
2018-03-28T18:08:36.135Z,2.30
2018-03-28T18:11:39.444Z,2.24
2018-03-28T18:14:42.758Z,2.19
2018-03-28T19:05:28.067Z,1.72
2018-03-28T19:08:32.666Z,1.67
2018-03-28T19:11:38.794Z,1.65
2018-03-28T19:14:44.012Z,1.65
2018-03-28T19:17:48.655Z,1.63
2018-03-28T19:20:52.118Z,1.60
2018-03-28T19:23:57.835Z,1.61
2018-03-28T19:27:11.250Z,1.61
2018-03-28T19:37:27.896Z,1.63
2018-03-28T19:40:31.860Z,1.59
2018-03-28T19:43:38.118Z,1.60
2018-03-28T19:46:44.410Z,1.56
2018-03-28T19:49:49.027Z,1.54
2018-03-28T19:52:53.943Z,1.53
2018-03-28T19:56:01.760Z,1.55
2018-03-28T19:59:09.012Z,1.51
2018-03-28T20:02:15.571Z,1.49
2018-03-28T20:05:26.949Z,1.50
2018-03-28T20:08:33.361Z,1.46
2018-03-28T20:11:49.964Z,1.45
2018-03-28T20:14:56.849Z,1.45
2018-03-28T20:18:04.741Z,1.46
2018-03-28T20:24:21.283Z,1.42
2018-03-28T20:27:26.918Z,1.44
2018-03-28T20:30:50.552Z,1.41
2018-03-28T20:33:55.777Z,1.40
2018-03-28T20:37:04.104Z,1.40
2018-03-28T20:40:08.420Z,1.41
2018-03-28T20:43:14.429Z,1.39
2018-03-28T20:46:22.392Z,1.40
2018-03-28T20:49:28.885Z,1.40
2018-03-28T20:52:34.410Z,1.39
2018-03-28T20:55:39.987Z,1.40
2018-03-28T20:58:44.776Z,1.38
2018-03-28T21:01:51.609Z,1.38
2018-03-28T21:04:56.629Z,1.36
2018-03-28T21:08:05.413Z,1.40
2018-03-28T21:11:09.061Z,1.38
2018-03-28T21:14:15.948Z,1.39
2018-03-28T21:17:23.074Z,1.38
2018-03-28T21:20:28.583Z,1.38
2018-03-28T21:23:38.026Z,1.37
2018-03-28T21:26:43.138Z,1.39
2018-03-28T21:29:51.338Z,1.41
2018-03-28T21:36:08.018Z,1.41
2018-03-28T21:39:12.291Z,1.41
2018-03-28T21:42:18.504Z,1.40
2018-03-28T21:45:24.307Z,1.39
2018-03-28T21:48:28.962Z,1.39
2018-03-28T21:51:33.369Z,1.37
2018-03-28T21:54:39.093Z,1.39
2018-03-28T21:57:45.952Z,1.40
2018-03-28T22:00:53.754Z,1.39
2018-03-28T22:03:59.064Z,1.40
2018-03-28T22:07:04.395Z,1.40
2018-03-28T22:10:10.885Z,1.38
2018-03-28T22:13:16.171Z,1.38
2018-03-28T22:16:22.928Z,1.38
2018-03-28T22:19:29.692Z,1.38
2018-03-28T22:22:33.506Z,1.39
2018-03-28T22:25:38.111Z,1.38
2018-03-28T22:28:43.138Z,1.39
2018-03-28T22:31:47.693Z,1.39
2018-03-28T22:34:51.983Z,1.37
2018-03-28T22:37:56.404Z,1.38
2018-03-28T22:40:59.940Z,1.40
2018-03-28T22:44:04.916Z,1.40
2018-03-28T22:47:09.113Z,1.38
2018-03-28T22:50:13.000Z,1.40
2018-03-28T22:53:16.960Z,1.43
2018-03-28T22:56:22.225Z,1.40
2018-03-28T22:59:28.050Z,1.35
2018-03-28T23:02:32.500Z,1.38
2018-03-28T23:05:37.330Z,1.35
2018-03-28T23:08:43.484Z,1.32
2018-03-28T23:11:48.780Z,1.34
2018-03-28T23:14:55.419Z,1.35
2018-03-28T23:17:59.765Z,1.33
2018-03-28T23:21:03.674Z,1.35
2018-03-28T23:24:08.593Z,1.34
2018-03-28T23:27:13.723Z,1.31
2018-03-28T23:30:18.443Z,1.32
2018-03-28T23:33:23.928Z,1.32
2018-03-28T23:36:29.860Z,1.32
2018-03-28T23:39:35.624Z,1.36
2018-03-28T23:42:39.373Z,1.33
2018-03-28T23:45:46.943Z,1.32
2018-03-28T23:48:52.789Z,1.37
2018-03-28T23:51:58.583Z,1.36
2018-03-28T23:55:05.517Z,1.36
2018-03-28T23:58:10.214Z,1.31
